Time;durP1;ratioP1;P1;durP2;ratioP2;P2;SDS_P1;SDS_P2;PMS_P1;PMS_P2;Temp;Humidity;BMP_temperature;BMP_pressure;BME280_temperature;BME280_humidity;BME280_pressure;Samples;Min_cycle;Max_cycle;Signal;HPM_P1;HPM_P2
2023/04/24 05:00:25;;;;;;;;;1.00;1.00;;;;;12.12;74.00;-19535.44;5975190;23;46729;31
2023/04/24 05:02:51;;;;;;;;;2.00;2.00;;;;;11.99;74.25;-19532.09;4996572;28;45409;-77
2023/04/24 05:05:17;;;;;;;;;1.67;1.67;;;;;12.15;74.00;-19536.25;4995880;28;45379;-77
2023/04/24 05:07:43;;;;;;;;;1.00;1.00;;;;;12.03;74.33;-19533.28;4982098;28;45528;-78
2023/04/24 05:10:08;;;;;;;;;2.00;2.00;;;;;12.16;73.97;-19536.66;4978242;28;46936;-77
2023/04/24 05:12:34;;;;;;;;;1.00;1.00;;;;;12.17;74.06;-19536.78;4989366;28;45569;-77
2023/04/24 05:14:59;;;;;;;;;1.00;1.00;;;;;12.13;74.06;-19535.84;4996221;28;45574;-77
2023/04/24 05:17:25;;;;;;;;;2.00;2.00;;;;;11.96;74.39;-19531.28;4998368;28;45367;-78
2023/04/24 05:19:51;;;;;;;;;3.00;2.00;;;;;12.03;74.14;-19533.28;4997693;28;46224;-77
2023/04/24 05:22:18;;;;;;;;;2.00;2.00;;;;;11.89;74.26;-19529.53;4995588;28;45436;-77
2023/04/24 05:24:43;;;;;;;;;3.00;1.00;;;;;12.04;74.02;-19533.44;4996437;28;45525;-77
2023/04/24 05:27:09;;;;;;;;;2.33;2.33;;;;;12.13;74.03;-19535.72;4995828;28;45478;-77
2023/04/24 05:29:34;;;;;;;;;2.00;2.00;;;;;12.21;73.98;-19538.00;4997091;28;45587;-77
2023/04/24 05:32:00;;;;;;;;;1.67;1.67;;;;;12.17;74.05;-19536.94;4996849;28;45777;-77
2023/04/24 05:34:26;;;;;;;;;2.00;2.00;;;;;12.12;73.81;-19535.44;4997811;28;45697;-77
2023/04/24 05:36:52;;;;;;;;;3.00;3.00;;;;;11.97;74.06;-19531.69;4997949;28;45538;-77
2023/04/24 05:39:17;;;;;;;;;3.33;3.00;;;;;12.27;73.75;-19539.34;4997107;28;49147;-76
2023/04/24 05:41:43;;;;;;;;;1.67;1.67;;;;;12.15;73.81;-19536.25;4996680;28;45443;-77
2023/04/24 05:44:09;;;;;;;;;2.00;2.00;;;;;12.30;73.86;-19540.16;4997281;28;45438;-77
2023/04/24 05:46:34;;;;;;;;;1.00;1.00;;;;;12.30;73.85;-19540.16;4997792;28;45433;-77
2023/04/24 05:48:59;;;;;;;;;1.00;1.00;;;;;12.30;73.93;-19540.16;4994537;28;46439;-77
2023/04/24 05:51:25;;;;;;;;;3.00;3.00;;;;;12.31;74.18;-19540.44;4996378;28;69626;-77
2023/04/24 05:53:51;;;;;;;;;5.00;2.00;;;;;12.15;73.84;-19536.38;4995984;28;45541;-77
2023/04/24 05:56:16;;;;;;;;;1.67;1.67;;;;;11.72;73.95;-19524.94;4979959;28;45389;-77
2023/04/24 05:58:42;;;;;;;;;5.67;4.67;;;;;12.20;73.85;-19537.59;4996018;28;46082;-77
2023/04/24 06:01:07;;;;;;;;;5.00;3.00;;;;;12.27;73.74;-19539.34;4996739;28;45475;-77
2023/04/24 06:03:33;;;;;;;;;2.00;2.00;;;;;12.36;73.71;-19541.91;4978055;28;45532;-76
2023/04/24 06:05:58;;;;;;;;;1.33;1.33;;;;;11.99;73.73;-19532.09;4997249;28;45603;-77
2023/04/24 06:08:24;;;;;;;;;1.67;1.67;;;;;12.38;73.97;-19542.31;4996971;28;46101;-77
2023/04/24 06:10:49;;;;;;;;;2.33;2.00;;;;;12.39;74.07;-19542.59;4978361;28;45428;-77
2023/04/24 06:13:15;;;;;;;;;1.67;1.67;;;;;12.35;74.06;-19541.50;4978675;28;45425;-76
2023/04/24 06:15:41;;;;;;;;;3.00;2.33;;;;;12.35;74.14;-19541.63;4996949;28;45593;-77
2023/04/24 06:18:07;;;;;;;;;1.67;1.67;;;;;12.25;74.16;-19538.94;4996715;28;46147;-77
2023/04/24 06:20:32;;;;;;;;;4.00;4.00;;;;;12.40;74.19;-19542.84;4996692;28;45480;-77
2023/04/24 06:22:57;;;;;;;;;3.00;2.67;;;;;12.33;74.31;-19540.97;4997014;28;45716;-77
2023/04/24 06:25:26;;;;;;;;;2.67;1.33;;;;;12.33;74.23;-19540.97;4997143;28;45442;-78
2023/04/24 06:27:51;;;;;;;;;3.33;2.67;;;;;12.47;74.16;-19544.72;4996484;28;46096;-77
2023/04/24 06:30:17;;;;;;;;;3.00;2.33;;;;;12.29;74.55;-19540.03;4996641;28;45775;-77
2023/04/24 06:32:42;;;;;;;;;6.33;6.33;;;;;12.51;74.24;-19545.69;4996912;28;46160;-77
2023/04/24 06:35:09;;;;;;;;;4.00;3.33;;;;;12.23;74.35;-19538.41;4997042;28;45512;-77
2023/04/24 06:37:35;;;;;;;;;3.33;3.33;;;;;12.36;74.36;-19541.91;4996546;28;46159;-77
2023/04/24 06:40:00;;;;;;;;;7.33;2.67;;;;;12.54;74.14;-19546.63;4996406;28;45451;-77
2023/04/24 06:42:26;;;;;;;;;6.00;4.00;;;;;12.56;74.41;-19547.16;4996331;28;45300;-77
2023/04/24 06:44:51;;;;;;;;;2.33;2.33;;;;;11.92;74.28;-19530.34;4996820;28;45464;-78
2023/04/24 06:47:16;;;;;;;;;3.33;3.33;;;;;12.47;74.33;-19544.72;4996301;28;45404;-78
2023/04/24 06:49:42;;;;;;;;;3.67;2.67;;;;;12.55;74.60;-19546.88;4995885;28;45473;-77
2023/04/24 06:52:07;;;;;;;;;5.00;3.33;;;;;12.59;74.40;-19547.97;4996398;28;45590;-77
2023/04/24 06:54:33;;;;;;;;;3.67;3.67;;;;;12.50;74.55;-19545.41;4996738;28;45422;-77
2023/04/24 06:57:00;;;;;;;;;6.00;4.33;;;;;12.62;74.90;-19548.63;4995965;28;45472;-77
2023/04/24 06:59:26;;;;;;;;;4.33;4.33;;;;;12.57;74.33;-19547.28;4996240;28;45418;-77
2023/04/24 07:01:51;;;;;;;;;5.67;3.67;;;;;12.73;74.49;-19551.47;4978222;28;45488;-77
2023/04/24 07:04:17;;;;;;;;;4.67;4.67;;;;;12.89;74.60;-19555.78;4996159;28;47247;-78
2023/04/24 07:06:45;;;;;;;;;4.00;4.00;;;;;12.94;74.45;-19556.97;4996218;28;46310;-76
2023/04/24 07:09:11;;;;;;;;;4.67;4.67;;;;;12.99;74.22;-19558.31;4996169;28;45693;-77
2023/04/24 07:11:38;;;;;;;;;4.00;4.00;;;;;12.94;74.52;-19557.13;4995957;28;45443;-77
2023/04/24 07:14:03;;;;;;;;;6.67;6.67;;;;;12.88;74.17;-19555.63;4996605;28;45492;-77
2023/04/24 07:16:30;;;;;;;;;7.00;6.67;;;;;13.05;74.19;-19559.94;4978021;28;47968;-77
2023/04/24 07:18:55;;;;;;;;;4.00;4.00;;;;;12.70;74.07;-19550.78;4995882;28;45515;-78
2023/04/24 07:21:20;;;;;;;;;7.00;7.00;;;;;13.11;74.17;-19561.56;4995601;28;45417;-78
2023/04/24 07:23:45;;;;;;;;;5.67;5.00;;;;;13.14;74.21;-19562.22;4962470;28;45542;-77
2023/04/24 07:26:11;;;;;;;;;5.67;4.00;;;;;13.17;74.20;-19563.16;4995094;28;62267;-77
2023/04/24 07:28:36;;;;;;;;;8.00;7.33;;;;;12.98;74.14;-19558.19;4995915;28;45388;-77
2023/04/24 07:31:01;;;;;;;;;5.00;5.00;;;;;13.21;74.08;-19564.25;4996116;28;45846;-78
2023/04/24 07:33:27;;;;;;;;;4.00;4.00;;;;;13.25;74.04;-19565.31;4996299;28;45460;-78
2023/04/24 07:35:52;;;;;;;;;4.33;4.33;;;;;13.28;73.97;-19566.00;4995738;28;45862;-77
2023/04/24 07:38:21;;;;;;;;;6.00;4.67;;;;;13.14;73.92;-19562.38;4995930;28;45532;-78
2023/04/24 07:40:47;;;;;;;;;4.33;4.00;;;;;13.39;73.94;-19568.97;4995538;28;45440;-77
2023/04/24 07:43:12;;;;;;;;;4.33;4.00;;;;;13.43;73.73;-19570.03;4995780;28;46369;-77
2023/04/24 07:45:37;;;;;;;;;6.33;5.67;;;;;13.47;73.76;-19571.09;4995728;28;45775;-77
2023/04/24 07:48:03;;;;;;;;;4.67;4.67;;;;;13.35;73.38;-19567.75;4995704;28;45368;-77
2023/04/24 07:50:28;;;;;;;;;5.00;5.00;;;;;13.49;73.40;-19571.50;4995879;28;45431;-77
2023/04/24 07:52:54;;;;;;;;;3.67;3.67;;;;;13.48;73.34;-19571.25;4995963;28;45436;-77
2023/04/24 07:55:20;;;;;;;;;3.67;2.33;;;;;13.22;73.30;-19564.38;4995242;28;47049;-77
2023/04/24 07:57:45;;;;;;;;;4.33;3.33;;;;;13.02;73.41;-19559.13;4995676;28;45432;-77
2023/04/24 08:00:11;;;;;;;;;6.33;4.00;;;;;13.40;73.20;-19569.22;4995548;28;45471;-77
2023/04/24 08:02:36;;;;;;;;;5.00;5.00;;;;;12.74;73.45;-19551.88;4995710;28;45414;-77
2023/04/24 08:05:03;;;;;;;;;4.67;4.67;;;;;13.17;73.11;-19563.03;4995462;28;46015;-77
2023/04/24 08:07:28;;;;;;;;;7.00;6.00;;;;;13.29;73.24;-19566.25;4995350;28;45990;-78
2023/04/24 08:09:54;;;;;;;;;4.33;4.00;;;;;13.35;73.10;-19567.75;4995059;28;45510;-77
2023/04/24 08:12:19;;;;;;;;;4.00;4.00;;;;;13.37;73.17;-19568.28;4996346;28;45534;-77
2023/04/24 08:14:45;;;;;;;;;8.33;5.67;;;;;12.86;72.99;-19555.09;4998537;28;47284;-77
2023/04/24 08:17:10;;;;;;;;;5.33;5.33;;;;;13.50;73.10;-19571.91;4998841;28;45471;-77
2023/04/24 08:19:35;;;;;;;;;5.00;4.00;;;;;13.60;73.05;-19574.34;4998742;28;45576;-77
2023/04/24 08:22:01;;;;;;;;;6.33;6.33;;;;;13.51;72.58;-19572.06;4999090;28;45602;-78
2023/04/24 08:24:26;;;;;;;;;6.67;4.00;;;;;13.62;72.76;-19574.88;4998104;28;46086;-77
2023/04/24 08:26:53;;;;;;;;;6.67;6.33;;;;;13.54;72.87;-19572.72;4998599;28;45486;-77
2023/04/24 08:29:19;;;;;;;;;7.33;7.33;;;;;13.92;72.38;-19582.81;4998643;28;45536;-77
2023/04/24 08:31:44;;;;;;;;;7.33;7.33;;;;;13.84;72.57;-19580.78;4998914;28;45474;-77
2023/04/24 08:34:10;;;;;;;;;11.67;8.00;;;;;13.97;72.47;-19584.00;4998393;28;46293;-77
2023/04/24 08:36:36;;;;;;;;;4.67;4.67;;;;;13.61;72.07;-19574.59;4998618;28;45475;-77
2023/04/24 08:39:01;;;;;;;;;7.00;7.00;;;;;13.89;72.25;-19582.00;4998259;28;45384;-78
2023/04/24 08:41:27;;;;;;;;;11.33;6.67;;;;;14.02;72.13;-19585.50;4998269;28;45459;-78
2023/04/24 08:43:53;;;;;;;;;8.00;8.00;;;;;13.86;72.04;-19581.19;4998367;28;46117;-77
2023/04/24 08:46:19;;;;;;;;;9.00;9.00;;;;;13.97;72.41;-19584.16;4998360;28;45423;-77
2023/04/24 08:48:45;;;;;;;;;6.33;6.33;;;;;14.02;72.08;-19585.50;4998310;28;45443;-78
2023/04/24 08:51:11;;;;;;;;;8.33;8.33;;;;;14.03;72.03;-19585.63;4998669;28;45487;-78
2023/04/24 08:53:36;;;;;;;;;12.67;9.33;;;;;14.07;71.94;-19586.69;4997848;28;46265;-78
2023/04/24 08:56:03;;;;;;;;;9.00;7.67;;;;;13.90;71.92;-19582.25;4998208;28;45371;-77
2023/04/24 08:58:29;;;;;;;;;8.67;8.67;;;;;14.10;71.93;-19587.63;4998198;28;45457;-77
2023/04/24 09:00:55;;;;;;;;;8.00;7.67;;;;;14.08;71.63;-19586.97;4998253;28;45531;-78
2023/04/24 09:03:21;;;;;;;;;8.33;7.33;;;;;14.12;71.76;-19588.03;4997968;28;45502;-77
2023/04/24 09:05:49;;;;;;;;;7.67;7.33;;;;;14.02;71.82;-19585.34;4998121;28;45831;-77
2023/04/24 09:08:17;;;;;;;;;8.33;5.67;;;;;14.06;72.20;-19586.56;4997865;28;45477;-77
2023/04/24 09:10:43;;;;;;;;;7.00;5.67;;;;;13.68;71.60;-19576.63;4997786;28;45636;-77
2023/04/24 09:13:09;;;;;;;;;7.00;6.67;;;;;14.23;71.21;-19591.00;4997773;28;46072;-77
2023/04/24 09:15:35;;;;;;;;;5.67;4.33;;;;;14.23;71.13;-19591.00;4997855;28;45436;-77
2023/04/24 09:18:01;;;;;;;;;11.33;7.67;;;;;14.23;71.30;-19591.00;4997770;28;45451;-78
2023/04/24 09:20:27;;;;;;;;;7.00;7.00;;;;;14.26;71.15;-19591.81;4998122;28;45384;-77
2023/04/24 09:22:57;;;;;;;;;7.33;7.33;;;;;14.27;71.36;-19592.06;4997437;28;46081;-77
2023/04/24 09:25:30;;;;;;;;;8.00;8.00;;;;;14.31;70.68;-19593.00;4997640;28;45964;-77
2023/04/24 09:28:02;;;;;;;;;6.00;6.00;;;;;13.86;70.63;-19581.19;4997718;28;45379;-77
2023/04/24 09:30:27;;;;;;;;;7.67;7.00;;;;;14.25;70.96;-19591.41;4998038;28;45422;-76
2023/04/24 09:33:10;;;;;;;;;7.67;7.00;;;;;14.32;70.75;-19593.41;4997724;28;46521;-77
2023/04/24 09:35:36;;;;;;;;;5.33;4.00;;;;;14.40;70.03;-19595.44;4997600;28;45451;-77
2023/04/24 09:38:01;;;;;;;;;6.00;5.33;;;;;14.47;70.53;-19597.16;4985014;28;45726;-77
2023/04/24 09:40:27;;;;;;;;;8.33;6.67;;;;;14.27;70.18;-19592.06;4977527;28;52386;-78
2023/04/24 09:42:55;;;;;;;;;8.33;6.67;;;;;14.51;70.52;-19598.38;4977950;28;45937;-77
2023/04/24 09:45:21;;;;;;;;;7.00;7.00;;;;;14.30;70.09;-19592.88;4977663;28;45585;-77
2023/04/24 09:47:51;;;;;;;;;7.00;5.00;;;;;14.66;70.27;-19602.28;4977889;28;45392;-78
2023/04/24 09:50:17;;;;;;;;;6.67;6.67;;;;;14.55;69.51;-19599.31;4996646;28;45597;-78
2023/04/24 09:52:55;;;;;;;;;8.67;6.00;;;;;14.78;69.75;-19605.50;4997200;28;45800;-77
2023/04/24 09:55:20;;;;;;;;;4.00;3.33;;;;;14.74;69.70;-19604.28;4997347;28;45469;-78
2023/04/24 09:57:51;;;;;;;;;5.00;5.00;;;;;14.81;69.22;-19606.19;4997343;28;45790;-77
2023/04/24 10:00:31;;;;;;;;;6.33;6.33;;;;;14.92;69.50;-19609.00;4996197;28;45506;-78
2023/04/24 10:03:04;;;;;;;;;7.00;6.00;;;;;15.09;68.71;-19613.44;4996996;28;46797;-77
2023/04/24 10:05:34;;;;;;;;;8.00;6.33;;;;;15.17;68.76;-19615.56;4996786;28;45461;-78
2023/04/24 10:08:07;;;;;;;;;3.67;2.00;;;;;15.03;69.19;-19611.94;4997230;28;45445;-78
2023/04/24 10:10:38;;;;;;;;;7.00;5.33;;;;;15.45;68.78;-19622.94;4997070;28;45521;-78
2023/04/24 10:13:04;;;;;;;;;4.67;4.67;;;;;15.62;67.79;-19627.50;4996784;28;46368;-77
2023/04/24 10:15:30;;;;;;;;;8.33;7.00;;;;;15.70;66.81;-19629.38;4996938;28;45446;-80
2023/04/24 10:17:58;;;;;;;;;7.33;5.67;;;;;15.71;67.68;-19629.66;4997083;28;45521;-80
2023/04/24 10:20:26;;;;;;;;;4.67;3.67;;;;;15.78;68.43;-19631.66;4997468;28;45561;-80
2023/04/24 10:22:53;;;;;;;;;4.00;4.00;;;;;15.63;67.54;-19627.78;4983742;28;46329;-80
2023/04/24 10:25:21;;;;;;;;;7.00;6.67;;;;;15.78;67.31;-19631.53;4996797;28;45471;-79
2023/04/24 10:27:47;;;;;;;;;6.33;6.33;;;;;15.27;66.55;-19618.25;4996981;28;45388;-80
2023/04/24 10:30:13;;;;;;;;;7.67;7.67;;;;;15.71;66.84;-19629.66;4997130;28;45417;-79
2023/04/24 10:32:39;;;;;;;;;9.67;8.00;;;;;15.56;66.90;-19625.75;4996622;28;46222;-79
2023/04/24 10:35:06;;;;;;;;;7.67;5.33;;;;;15.50;66.37;-19624.28;4995755;28;45494;-79
2023/04/24 10:37:38;;;;;;;;;10.33;8.00;;;;;15.74;66.23;-19630.47;4996832;28;45558;-79
2023/04/24 10:40:05;;;;;;;;;5.00;5.00;;;;;15.69;66.39;-19629.13;4996841;28;45458;-80
2023/04/24 10:42:30;;;;;;;;;7.33;7.33;;;;;16.00;66.55;-19637.31;4996550;28;46435;-78
2023/04/24 10:44:57;;;;;;;;;8.67;5.67;;;;;16.07;65.45;-19639.03;4978734;28;45499;-79
2023/04/24 10:47:23;;;;;;;;;7.00;5.67;;;;;15.84;66.11;-19633.16;4996761;28;45450;-79
2023/04/24 10:49:51;;;;;;;;;6.33;6.33;;;;;16.10;65.89;-19639.97;4996349;28;45484;-79
2023/04/24 10:52:16;;;;;;;;;5.00;5.00;;;;;16.01;64.40;-19637.56;4996596;28;45655;-79
2023/04/24 10:54:46;;;;;;;;;3.00;3.00;;;;;16.17;64.91;-19641.72;4996460;28;45381;-80
2023/04/24 10:57:19;;;;;;;;;6.00;4.00;;;;;16.24;64.44;-19643.59;4996772;28;45703;-79
2023/04/24 10:59:44;;;;;;;;;9.33;7.33;;;;;15.92;63.81;-19635.28;4996765;28;45498;-79
2023/04/24 11:02:10;;;;;;;;;5.00;5.00;;;;;16.57;64.25;-19652.16;4938387;28;46173;-79
2023/04/24 11:04:36;;;;;;;;;8.00;6.00;;;;;16.77;62.97;-19657.53;4915790;28;45373;-80
2023/04/24 11:07:03;;;;;;;;;4.00;4.00;;;;;17.16;63.03;-19667.72;4916373;28;45700;-79
2023/04/24 11:09:31;;;;;;;;;11.00;10.00;;;;;17.48;61.98;-19676.13;4916422;28;45445;-78
2023/04/24 11:12:06;;;;;;;;;9.00;7.00;;;;;17.92;61.68;-19687.66;4915692;28;47179;-80
2023/04/24 11:14:59;;;;;;;;;9.00;7.00;;;;;18.46;60.86;-19701.56;4915770;28;45546;-84
2023/04/24 11:17:37;;;;;;;;;6.33;5.00;;;;;18.92;60.84;-19713.59;4915631;28;45618;-80
2023/04/24 11:20:17;;;;;;;;;9.00;9.00;;;;;19.28;57.14;-19722.94;4916032;28;45755;-81
2023/04/24 11:22:42;;;;;;;;;8.33;6.00;;;;;19.52;57.17;-19729.19;4915648;28;45450;-81
2023/04/24 11:25:11;;;;;;;;;10.33;8.67;;;;;20.21;56.86;-19747.22;4915655;28;45415;-80
2023/04/24 11:27:43;;;;;;;;;5.00;5.00;;;;;20.50;57.49;-19754.69;4915784;28;45470;-80
2023/04/24 11:30:10;;;;;;;;;4.67;4.67;;;;;20.69;57.43;-19759.75;4915991;28;45535;-81
2023/04/24 11:32:38;;;;;;;;;7.00;5.67;;;;;20.81;54.96;-19424.66;4915201;28;46582;-81
2023/04/24 11:35:06;;;;;;;;;9.33;8.00;;;;;20.92;53.45;-17744.97;4915724;28;45427;-82
2023/04/24 11:37:40;;;;;;;;;6.25;4.25;;;;;20.80;54.90;-18078.84;4915639;28;45523;-82
2023/04/24 11:40:07;;;;;;;;;5.33;5.00;;;;;20.69;53.95;-17403.28;4915823;28;45537;-81
2023/04/24 11:42:37;;;;;;;;;5.00;5.00;;;;;20.82;54.82;-17406.25;4915299;28;46269;-81
2023/04/24 11:45:15;;;;;;;;;5.00;5.00;;;;;21.12;54.55;-17076.19;4915428;28;45332;-81
2023/04/24 11:47:41;;;;;;;;;3.25;3.25;;;;;21.28;52.87;-15732.47;4916272;28;45423;-80
2023/04/24 11:50:09;;;;;;;;;6.00;3.00;;;;;21.10;54.17;-16402.31;4918533;28;45401;-81
2023/04/24 11:52:40;;;;;;;;;3.50;3.50;;;;;21.21;51.16;-11349.22;4918132;28;46916;-80
2023/04/24 11:55:24;;;;;;;;;3.25;3.00;;;;;20.95;50.71;-8985.38;4894732;28;46137;-80
2023/04/24 11:57:50;;;;;;;;;5.00;5.00;;;;;21.10;50.17;-7299.31;4896245;28;45503;-81
2023/04/24 12:00:18;;;;;;;;;2.25;2.25;;;;;21.02;50.90;-5948.53;4899409;28;45619;-81
2023/04/24 12:02:44;;;;;;;;;4.25;3.00;;;;;20.70;49.73;-3246.63;4993285;28;46265;-81
2023/04/24 12:05:21;;;;;;;;;5.25;3.75;;;;;20.66;49.91;-2233.50;4999107;28;45472;-81
2023/04/24 12:07:47;;;;;;;;;2.25;2.00;;;;;20.24;49.24;1818.31;4999180;28;45457;-82
2023/04/24 12:10:12;;;;;;;;;3.75;2.00;;;;;20.17;48.19;4521.50;4999156;28;45650;-81
2023/04/24 12:12:38;;;;;;;;;4.00;2.25;;;;;19.61;48.78;5528.00;4998660;28;45484;-81
2023/04/24 12:15:07;;;;;;;;;3.25;3.00;;;;;19.68;48.46;7556.94;4998924;28;45444;-81
2023/04/24 12:17:35;;;;;;;;;4.00;4.00;;;;;19.33;49.62;7888.91;4999216;28;45375;-80
2023/04/24 12:20:04;;;;;;;;;1.50;1.50;;;;;19.19;48.62;9914.13;4999012;28;45563;-80
2023/04/24 12:22:45;;;;;;;;;2.25;2.25;;;;;18.96;47.81;12613.38;4998617;28;46724;-80
2023/04/24 12:25:11;;;;;;;;;1.00;1.00;;;;;18.81;49.41;12271.44;4998861;28;45769;-79
2023/04/24 12:27:37;;;;;;;;;1.75;1.75;;;;;18.60;48.32;13956.16;4998736;28;45499;-80
2023/04/24 12:30:05;;;;;;;;;1.50;1.50;;;;;18.55;49.21;13279.00;4998727;28;45469;-80
2023/04/24 12:32:30;;;;;;;;;1.50;1.50;;;;;18.47;49.48;12938.91;4998651;28;45631;-80
2023/04/24 12:34:57;;;;;;;;;2.00;2.00;;;;;18.40;49.04;15302.88;4998317;28;45365;-80
2023/04/24 12:37:24;;;;;;;;;2.00;1.00;;;;;18.26;48.90;15298.78;4996937;28;45539;-78
2023/04/24 12:40:03;;;;;;;;;3.00;2.00;;;;;18.27;49.30;14622.97;4998741;28;45421;-78
2023/04/24 12:42:30;;;;;;;;;3.00;1.00;;;;;18.22;49.85;14621.50;4993241;28;47219;-79
2023/04/24 12:45:04;;;;;;;;;1.00;1.00;;;;;17.99;49.42;14277.28;4997965;28;45570;-79
2023/04/24 12:47:30;;;;;;;;;1.00;1.00;;;;;18.03;50.58;12927.38;4998467;28;45540;-79
2023/04/24 12:49:56;;;;;;;;;1.67;1.67;;;;;18.13;50.25;12592.44;4998349;28;45433;-77
2023/04/24 12:52:23;;;;;;;;;1.25;1.25;;;;;18.35;50.76;11584.59;4997977;28;45528;-79
2023/04/24 12:54:49;;;;;;;;;1.67;1.33;;;;;18.41;51.31;10235.13;4998269;28;45438;-79
2023/04/24 12:57:15;;;;;;;;;1.00;1.00;;;;;18.26;51.50;9894.50;4998460;28;45309;-80
2023/04/24 12:59:41;;;;;;;;;1.00;1.00;;;;;18.06;50.58;11577.66;4997686;28;45447;-81
2023/04/24 13:02:07;;;;;;;;;2.33;1.33;;;;;17.92;49.29;13262.22;4942155;28;46539;-79
2023/04/24 13:04:32;;;;;;;;;1.00;1.00;;;;;18.08;50.18;13266.53;4917503;28;45708;-80
2023/04/24 13:06:57;;;;;;;;;1.00;1.00;;;;;18.36;49.98;12260.34;4915506;28;45438;-80
2023/04/24 13:09:23;;;;;;;;;1.75;1.00;;;;;18.46;49.84;11925.06;4898630;28;45491;-80
2023/04/24 13:11:49;;;;;;;;;2.00;2.00;;;;;18.62;49.77;12266.84;4898231;28;46178;-80
2023/04/24 13:14:15;;;;;;;;;1.00;1.00;;;;;18.65;50.19;11591.66;4897957;28;45616;-80
2023/04/24 13:16:40;;;;;;;;;1.00;1.00;;;;;18.44;50.24;11586.78;4898316;28;45395;-80
2023/04/24 13:19:05;;;;;;;;;2.00;1.00;;;;;18.56;48.91;14631.47;4898143;29;45511;-81
2023/04/24 13:21:31;;;;;;;;;0.75;0.75;;;;;18.48;49.07;15305.31;4963206;28;46071;-79
2023/04/24 13:23:57;;;;;;;;;2.00;2.00;;;;;18.17;49.75;15296.03;4898163;28;45385;-80
2023/04/24 13:26:22;;;;;;;;;1.00;1.00;;;;;18.16;49.59;15295.72;4898242;29;45466;-80
2023/04/24 13:28:48;;;;;;;;;2.00;1.00;;;;;18.13;50.18;14619.16;4897806;28;45385;-80
2023/04/24 13:31:14;;;;;;;;;1.00;0.00;;;;;18.12;50.20;15294.50;4963418;28;48055;-79
2023/04/24 13:33:39;;;;;;;;;4.67;2.00;;;;;17.87;49.91;16300.56;4898140;28;45468;-80
2023/04/24 13:36:05;;;;;;;;;1.67;1.00;;;;;18.06;49.64;17320.75;4898379;28;45585;-79
2023/04/24 13:38:30;;;;;;;;;1.00;1.00;;;;;18.01;48.77;17995.22;4898373;28;45501;-81
2023/04/24 13:40:56;;;;;;;;;1.00;1.00;;;;;17.89;47.92;19681.56;4897867;28;47015;-80
2023/04/24 13:43:21;;;;;;;;;2.67;2.00;;;;;18.12;48.86;18337.22;4897665;28;45531;-79
2023/04/24 13:45:46;;;;;;;;;2.00;0.25;;;;;18.19;49.36;17324.78;4898204;28;45460;-80
2023/04/24 13:48:15;;;;;;;;;1.00;1.00;;;;;17.73;48.62;18323.59;4900121;28;45523;-80
2023/04/24 13:50:41;;;;;;;;;1.00;1.00;;;;;18.36;49.19;17668.78;4916778;28;46365;-80
2023/04/24 13:53:06;;;;;;;;;0.00;0.00;;;;;18.16;49.40;17662.09;4916802;28;45561;-80
2023/04/24 13:55:31;;;;;;;;;2.00;2.00;;;;;18.47;49.25;17334.06;4916440;28;49702;-79
2023/04/24 13:57:57;;;;;;;;;1.67;1.33;;;;;18.43;49.16;17332.91;4916848;28;45466;-79
2023/04/24 14:00:22;;;;;;;;;2.00;2.00;;;;;18.61;48.80;18015.59;4916535;28;45461;-79
2023/04/24 14:02:48;;;;;;;;;2.00;1.00;;;;;18.62;48.47;19031.38;4916478;28;48044;-79
2023/04/24 14:05:15;;;;;;;;;1.00;1.00;;;;;18.57;47.48;21399.75;4916837;28;45554;-79
2023/04/24 14:07:40;;;;;;;;;1.00;1.00;;;;;18.52;46.89;23769.16;4917129;28;45482;-81
2023/04/24 14:10:06;;;;;;;;;2.00;1.00;;;;;18.55;47.69;23431.59;4915427;28;46016;-79
2023/04/24 14:12:32;;;;;;;;;1.00;1.00;;;;;18.45;47.17;24105.13;4916338;28;45654;-80
2023/04/24 14:14:57;;;;;;;;;0.67;0.67;;;;;18.62;47.43;24112.53;4916760;28;45470;-80
2023/04/24 14:17:22;;;;;;;;;0.67;0.33;;;;;18.34;47.74;24777.84;4916951;28;45429;-80
2023/04/24 14:19:48;;;;;;;;;1.00;1.00;;;;;18.49;47.01;25123.72;4981864;28;46607;-79
2023/04/24 14:22:13;;;;;;;;;2.00;2.00;;;;;18.56;46.90;26822.44;4916441;28;45430;-79
2023/04/24 14:24:38;;;;;;;;;2.00;2.00;;;;;18.41;46.69;27026.75;4916699;28;45321;-79
2023/04/24 14:27:04;;;;;;;;;0.25;0.25;;;;;18.87;46.85;27757.31;4916646;28;45587;-80
2023/04/24 14:29:29;;;;;;;;;3.00;2.00;;;;;18.86;46.73;28544.16;4916228;28;45890;-79
2023/04/24 14:31:54;;;;;;;;;1.67;0.33;;;;;18.86;47.51;26539.88;4916433;28;45338;-79
2023/04/24 14:34:20;;;;;;;;;1.00;1.00;;;;;18.72;47.91;25812.47;4916089;28;49155;-80
2023/04/24 14:36:45;;;;;;;;;0.00;0.00;;;;;18.68;47.66;26149.72;4900507;28;45550;-79
2023/04/24 14:39:11;;;;;;;;;0.00;0.00;;;;;18.86;47.08;27870.81;4896619;29;56475;-80
2023/04/24 14:41:37;;;;;;;;;0.00;0.00;;;;;18.90;47.23;28342.28;4896690;28;45467;-79
2023/04/24 14:44:03;;;;;;;;;1.00;1.00;;;;;18.89;46.71;29710.50;4897270;28;45483;-82
2023/04/24 14:46:32;;;;;;;;;0.75;0.75;;;;;18.66;47.43;29090.78;4897515;28;45526;-78
2023/04/24 14:48:58;;;;;;;;;0.75;0.75;;;;;18.86;47.81;28432.75;4897007;28;46323;-79
2023/04/24 14:51:23;;;;;;;;;0.25;0.25;;;;;18.77;48.08;27638.47;4897225;28;45369;-79
2023/04/24 14:53:49;;;;;;;;;2.25;0.00;;;;;18.81;47.84;28711.53;4897058;28;45355;-79
2023/04/24 14:56:15;;;;;;;;;0.00;0.00;;;;;18.74;47.47;30044.84;4962401;28;45525;-80
2023/04/24 14:58:40;;;;;;;;;0.50;0.50;;;;;18.70;47.38;31658.38;4896921;28;46287;-79
2023/04/24 15:01:07;;;;;;;;;0.25;0.25;;;;;18.21;46.38;33240.38;4924659;28;45479;-79
2023/04/24 15:03:32;;;;;;;;;1.00;1.00;;;;;18.55;47.29;32867.69;4996706;28;45416;-79
2023/04/24 15:05:57;;;;;;;;;2.50;2.00;;;;;18.47;47.16;33961.59;4996701;28;45412;-80
2023/04/24 15:08:23;;;;;;;;;0.00;0.00;;;;;18.01;46.63;35831.22;4996202;28;48316;-77
2023/04/24 15:10:49;;;;;;;;;1.00;1.00;;;;;18.25;46.61;37308.91;4996082;28;45572;-79
2023/04/24 15:13:14;;;;;;;;;0.00;0.00;;;;;18.07;47.11;36949.50;4996365;28;45407;-77
2023/04/24 15:15:40;;;;;;;;;0.00;0.00;;;;;17.93;47.67;36574.69;4996756;28;45729;-78
2023/04/24 15:18:07;;;;;;;;;0.00;0.00;;;;;17.77;47.56;36391.44;4996271;28;46327;-79
2023/04/24 15:20:33;;;;;;;;;1.25;1.25;;;;;17.90;48.24;36448.00;4995957;28;45550;-79
2023/04/24 15:23:00;;;;;;;;;0.00;0.00;;;;;17.83;47.47;37873.41;4996181;28;45686;-78
2023/04/24 15:25:25;;;;;;;;;0.00;0.00;;;;;17.77;47.59;38180.22;4994777;28;45510;-79
2023/04/24 15:27:51;;;;;;;;;0.00;0.00;;;;;17.39;46.68;39531.53;4996107;28;46040;-79
2023/04/24 15:30:16;;;;;;;;;0.33;0.33;;;;;17.57;47.53;39286.75;4995989;28;45459;-79
2023/04/24 15:32:41;;;;;;;;;0.00;0.00;;;;;17.66;47.52;39274.13;4996214;28;45510;-79
2023/04/24 15:35:07;;;;;;;;;0.00;0.00;;;;;17.59;47.13;39317.00;4996507;28;45564;-79
2023/04/24 15:37:33;;;;;;;;;0.00;0.00;;;;;17.46;47.80;38928.81;4995721;28;46898;-78
2023/04/24 15:39:59;;;;;;;;;0.00;0.00;;;;;17.48;48.53;37972.78;4995795;28;45494;-79
2023/04/24 15:42:25;;;;;;;;;0.67;0.33;;;;;17.69;47.93;38541.00;4995918;28;45615;-80
2023/04/24 15:44:50;;;;;;;;;0.33;0.33;;;;;17.69;47.92;38647.50;4995942;28;45376;-78
2023/04/24 15:47:16;;;;;;;;;1.00;1.00;;;;;17.69;48.08;38004.91;4995070;28;58041;-78
2023/04/24 15:49:41;;;;;;;;;0.00;0.00;;;;;17.05;48.18;37344.97;4995480;28;45412;-78
2023/04/24 15:52:09;;;;;;;;;2.00;0.67;;;;;17.55;48.33;37369.38;4990220;28;45505;-78
2023/04/24 15:54:34;;;;;;;;;0.00;0.00;;;;;17.51;48.87;36263.78;4975641;28;45497;-78
2023/04/24 15:57:00;;;;;;;;;1.00;1.00;;;;;17.36;49.28;35170.25;4975798;28;45420;-78
2023/04/24 15:59:25;;;;;;;;;1.00;1.00;;;;;17.25;49.37;34787.03;4975488;28;45478;-77
2023/04/24 16:01:51;;;;;;;;;0.00;0.00;;;;;17.51;49.89;33936.59;4975772;28;45749;-78
2023/04/24 16:04:16;;;;;;;;;1.00;1.00;;;;;17.57;50.06;33218.81;4976097;28;45504;-78
2023/04/24 16:06:41;;;;;;;;;0.33;0.33;;;;;17.57;49.89;32511.38;4975563;28;46434;-78
2023/04/24 16:09:08;;;;;;;;;0.00;0.00;;;;;17.44;50.21;32202.38;4956916;28;68338;-78
2023/04/24 16:11:36;;;;;;;;;1.33;1.00;;;;;17.45;50.20;31980.47;4975791;28;45604;-78
2023/04/24 16:14:01;;;;;;;;;2.00;2.00;;;;;17.49;50.13;31535.19;4976193;28;45785;-78
2023/04/24 16:16:27;;;;;;;;;1.33;1.33;;;;;17.33;50.29;30808.56;4975351;28;46087;-78
2023/04/24 16:18:52;;;;;;;;;0.33;0.33;;;;;17.51;50.54;30765.38;4975577;28;45491;-78
2023/04/24 16:21:19;;;;;;;;;1.00;1.00;;;;;17.00;50.18;30692.78;4975575;28;45513;-78
2023/04/24 16:23:44;;;;;;;;;0.33;0.33;;;;;17.27;50.21;30315.81;4975624;28;45537;-78
2023/04/24 16:26:09;;;;;;;;;2.00;1.00;;;;;17.46;50.20;30090.13;4975133;28;49100;-78